Terminal Aerodrome Forecast
Issued by NWS Wilmington, NC

Home | Current Version | Previous Version | Text Only | Print | Product List | Glossary On
Versions: 1 2 3 4 5 6 7 8 9 10 11 12 13 14 15
000
FTUS42 KILM 212300
TAFMYR
TAF
KMYR 212320Z 2200/2224 23006KT P6SM SKC
     FM220700 33010KT P6SM SKC
     FM221100 33012G18KT P6SM SKC
     FM222200 34004KT P6SM SKC
      AMD LTD TO CLD VIS AND WIND 2204/2211=

USA.gov is the U.S. government's official web portal to all federal, state and local government web resources and services.